createdAt,value
2023-04-27T00:00:39.004Z,19.30
2023-04-27T00:06:00.785Z,18.60
2023-04-27T00:11:25.798Z,18.70
2023-04-27T00:16:47.924Z,16.80
2023-04-27T00:22:09.533Z,12.20
2023-04-27T00:27:31.266Z,11.40
2023-04-27T00:32:53.528Z,14.20
2023-04-27T00:38:15.519Z,15.00
2023-04-27T00:43:45.379Z,12.80
2023-04-27T00:49:07.210Z,15.00
2023-04-27T00:54:29.292Z,15.30
2023-04-27T00:59:51.165Z,14.70
2023-04-27T01:05:13.501Z,19.90
2023-04-27T01:10:35.969Z,20.70
2023-04-27T01:15:57.754Z,20.30
2023-04-27T01:21:19.290Z,16.20
2023-04-27T01:26:41.217Z,15.30
2023-04-27T01:32:03.700Z,15.60
2023-04-27T01:37:26.905Z,13.30
2023-04-27T01:42:49.110Z,12.70
2023-04-27T01:48:12.749Z,11.60
2023-04-27T01:53:35.212Z,12.50
2023-04-27T01:58:57.318Z,12.60
2023-04-27T02:04:19.564Z,11.70
2023-04-27T02:09:41.923Z,12.30
2023-04-27T02:15:05.610Z,11.60
2023-04-27T02:20:31.488Z,11.20
2023-04-27T02:25:55.683Z,9.90
2023-04-27T02:31:17.464Z,10.40
2023-04-27T02:36:41.052Z,9.70
2023-04-27T02:42:04.191Z,11.70
2023-04-27T02:47:26.157Z,11.50
2023-04-27T02:52:48.138Z,11.60
2023-04-27T02:58:10.199Z,11.40
2023-04-27T03:03:32.148Z,10.70
2023-04-27T03:08:53.725Z,10.50
2023-04-27T03:14:15.880Z,10.70
2023-04-27T03:19:37.640Z,11.50
2023-04-27T03:24:59.524Z,10.40
2023-04-27T03:30:21.543Z,12.40
2023-04-27T03:35:43.985Z,12.00
2023-04-27T03:41:08.541Z,11.20
2023-04-27T03:46:30.894Z,10.10
2023-04-27T03:51:52.967Z,9.50
2023-04-27T03:57:14.907Z,10.60
2023-04-27T04:02:40.006Z,12.40
2023-04-27T04:08:02.081Z,54.20
2023-04-27T04:13:24.105Z,33.70
2023-04-27T04:18:46.644Z,26.30
2023-04-27T04:24:08.561Z,19.70
2023-04-27T04:29:30.793Z,16.20
2023-04-27T04:34:52.827Z,11.90
2023-04-27T04:40:15.882Z,10.40
2023-04-27T04:45:37.486Z,11.20
2023-04-27T04:50:59.312Z,9.90
2023-04-27T04:56:21.471Z,10.10
2023-04-27T05:01:43.360Z,9.90
2023-04-27T05:07:06.713Z,11.40
2023-04-27T05:12:28.547Z,9.70
2023-04-27T05:17:50.475Z,10.20
2023-04-27T05:23:12.599Z,9.20
2023-04-27T05:28:34.829Z,8.50
2023-04-27T05:33:57.362Z,8.90
2023-04-27T05:39:19.186Z,9.60
2023-04-27T05:44:43.329Z,8.40
2023-04-27T05:50:05.654Z,7.40
2023-04-27T05:55:27.606Z,8.30
2023-04-27T06:00:49.964Z,10.20
2023-04-27T06:06:13.156Z,7.70
2023-04-27T06:11:35.176Z,7.60
2023-04-27T06:16:57.410Z,7.00
2023-04-27T06:22:19.242Z,6.70
2023-04-27T06:27:41.074Z,6.70
2023-04-27T06:33:03.074Z,7.00
2023-04-27T06:38:24.629Z,6.70
2023-04-27T06:43:46.352Z,6.30
2023-04-27T06:49:07.782Z,6.10
2023-04-27T06:54:29.826Z,6.60
2023-04-27T06:59:51.938Z,7.00
2023-04-27T07:05:14.068Z,6.50
2023-04-27T07:10:36.201Z,5.60
2023-04-27T07:15:58.172Z,5.90
2023-04-27T07:21:19.856Z,5.50
2023-04-27T07:26:41.542Z,5.60
2023-04-27T07:32:08.057Z,4.90
2023-04-27T07:37:30.466Z,5.50
2023-04-27T07:42:53.463Z,4.80
2023-04-27T07:48:15.398Z,4.40
2023-04-27T07:53:37.759Z,4.80
2023-04-27T07:59:01.905Z,3.30
2023-04-27T08:04:24.313Z,3.30
2023-04-27T08:09:46.556Z,3.20
2023-04-27T08:15:11.606Z,3.10
2023-04-27T08:20:33.340Z,3.20
2023-04-27T08:25:54.949Z,3.50
2023-04-27T08:31:16.838Z,3.10
2023-04-27T08:36:38.702Z,2.70
2023-04-27T08:42:00.835Z,3.00
2023-04-27T08:47:31.405Z,3.40
2023-04-27T08:53:03.696Z,3.40
2023-04-27T08:58:41.041Z,3.70
2023-04-27T09:04:02.825Z,3.10
2023-04-27T09:09:26.289Z,4.00
2023-04-27T09:15:05.016Z,2.90
2023-04-27T09:20:28.913Z,5.60
2023-04-27T09:25:50.765Z,4.20
2023-04-27T09:31:12.718Z,3.90
2023-04-27T09:36:34.735Z,3.30
2023-04-27T09:41:56.454Z,3.30
2023-04-27T09:47:18.283Z,3.00
2023-04-27T09:52:40.078Z,3.00
2023-04-27T09:58:27.052Z,3.20
2023-04-27T10:04:07.395Z,3.80
2023-04-27T10:09:55.819Z,3.60
2023-04-27T10:15:17.759Z,3.50
2023-04-27T10:20:40.707Z,3.50
2023-04-27T10:26:07.450Z,4.60
2023-04-27T10:31:29.790Z,3.60
2023-04-27T10:37:11.288Z,3.40
2023-04-27T10:42:34.014Z,4.10
2023-04-27T10:48:03.986Z,3.30
2023-04-27T10:53:27.073Z,4.80
2023-04-27T10:58:49.681Z,4.50
2023-04-27T11:04:12.161Z,3.70
2023-04-27T11:09:34.116Z,5.80
2023-04-27T11:14:58.982Z,6.20
2023-04-27T11:20:26.593Z,5.40
2023-04-27T11:25:48.513Z,5.10
2023-04-27T11:31:11.730Z,4.70
2023-04-27T11:36:33.656Z,4.00
2023-04-27T11:41:56.412Z,5.00
2023-04-27T11:47:21.451Z,5.20
2023-04-27T11:52:49.099Z,5.60
2023-04-27T11:58:15.142Z,4.30
2023-04-27T12:03:36.864Z,4.10
2023-04-27T12:09:00.012Z,4.20
2023-04-27T12:14:21.941Z,4.60
2023-04-27T12:19:44.864Z,4.20
2023-04-27T12:25:06.802Z,5.30
2023-04-27T12:30:28.944Z,4.80
2023-04-27T12:35:50.558Z,4.60
2023-04-27T12:41:12.286Z,6.60
2023-04-27T12:46:33.976Z,4.40
2023-04-27T12:51:57.349Z,4.50
2023-04-27T12:57:19.084Z,3.80
2023-04-27T13:02:42.343Z,4.70
2023-04-27T13:08:04.847Z,3.60
2023-04-27T13:13:27.074Z,3.60
2023-04-27T13:18:52.493Z,3.30
2023-04-27T13:24:17.149Z,3.50
2023-04-27T13:29:39.028Z,3.80
2023-04-27T13:35:00.705Z,3.70
2023-04-27T13:40:22.631Z,4.30
2023-04-27T13:45:45.502Z,3.70
2023-04-27T13:51:09.404Z,4.40
2023-04-27T13:56:31.485Z,4.20
2023-04-27T14:01:53.311Z,3.90
2023-04-27T14:07:16.586Z,3.70
2023-04-27T14:12:38.566Z,5.90
2023-04-27T14:17:59.960Z,5.70
2023-04-27T14:23:22.374Z,4.20
2023-04-27T14:28:44.117Z,5.70
2023-04-27T14:34:07.051Z,4.80
2023-04-27T14:39:28.783Z,5.30
2023-04-27T14:44:51.374Z,4.60
2023-04-27T14:50:15.849Z,6.10
2023-04-27T14:55:37.285Z,17.60
2023-04-27T15:01:01.452Z,6.70
2023-04-27T15:06:28.367Z,6.80
2023-04-27T15:11:50.422Z,5.20
2023-04-27T15:17:13.431Z,7.00
2023-04-27T15:22:35.197Z,7.10
2023-04-27T15:27:56.983Z,4.30
2023-04-27T15:33:18.683Z,4.60
2023-04-27T15:38:40.644Z,4.40
2023-04-27T15:44:02.737Z,3.90
2023-04-27T15:49:24.703Z,4.90
2023-04-27T15:54:46.632Z,4.10
2023-04-27T16:00:10.511Z,4.70
2023-04-27T16:05:32.306Z,4.70
2023-04-27T16:10:54.418Z,4.40
2023-04-27T16:16:16.068Z,5.10
2023-04-27T16:21:37.682Z,4.40
2023-04-27T16:26:59.805Z,5.30
2023-04-27T16:32:23.122Z,4.90
2023-04-27T16:37:46.085Z,4.20
2023-04-27T16:43:07.802Z,5.10
2023-04-27T16:48:30.658Z,4.80
2023-04-27T16:53:52.771Z,12.10
2023-04-27T16:59:17.318Z,5.30
2023-04-27T17:04:40.510Z,4.80
2023-04-27T17:10:02.267Z,7.40
2023-04-27T17:15:26.011Z,6.20
2023-04-27T17:20:47.971Z,5.50
2023-04-27T17:26:10.196Z,15.40
2023-04-27T17:31:32.230Z,6.70
2023-04-27T17:36:53.941Z,6.10
2023-04-27T17:42:16.927Z,9.20
2023-04-27T17:47:38.872Z,11.60
2023-04-27T17:53:00.922Z,13.30
2023-04-27T17:58:22.380Z,16.10
2023-04-27T18:03:44.155Z,13.70
2023-04-27T18:09:06.851Z,12.90
2023-04-27T18:14:28.736Z,14.10
2023-04-27T18:20:00.884Z,19.40
2023-04-27T18:25:29.254Z,19.80
2023-04-27T18:30:51.285Z,17.20
2023-04-27T18:36:13.242Z,15.20
2023-04-27T18:41:35.540Z,12.90
2023-04-27T18:46:57.570Z,16.50
2023-04-27T18:52:19.306Z,74.20
2023-04-27T18:57:41.230Z,33.40
2023-04-27T19:03:04.622Z,23.30
2023-04-27T19:08:26.685Z,20.40
2023-04-27T19:13:54.557Z,21.30
2023-04-27T19:19:16.901Z,20.60
2023-04-27T19:24:39.123Z,19.90
2023-04-27T19:30:02.572Z,20.90
2023-04-27T19:35:26.494Z,22.70
2023-04-27T19:40:48.901Z,26.70
2023-04-27T19:46:10.710Z,28.90
2023-04-27T19:51:32.759Z,30.10
2023-04-27T19:56:54.797Z,32.70
2023-04-27T20:02:17.312Z,33.10
2023-04-27T20:07:39.614Z,38.60
2023-04-27T20:13:01.147Z,36.70
2023-04-27T20:18:25.149Z,36.10
2023-04-27T20:23:48.054Z,38.10
2023-04-27T20:29:09.882Z,33.20
2023-04-27T20:34:31.713Z,33.10
2023-04-27T20:39:53.939Z,32.90
2023-04-27T20:45:15.695Z,35.20
2023-04-27T20:50:40.336Z,34.70
2023-04-27T20:56:02.654Z,36.30
2023-04-27T21:01:27.793Z,36.60
2023-04-27T21:06:49.507Z,33.20
2023-04-27T21:12:11.143Z,35.00
2023-04-27T21:17:32.852Z,40.20
2023-04-27T21:22:54.790Z,39.50
2023-04-27T21:28:16.422Z,41.30
2023-04-27T21:33:40.857Z,42.80
2023-04-27T21:39:03.094Z,40.10
2023-04-27T21:44:24.615Z,38.80
2023-04-27T21:49:46.249Z,35.70
2023-04-27T21:55:08.181Z,37.50
2023-04-27T22:00:29.901Z,38.50
2023-04-27T22:05:53.337Z,35.90
2023-04-27T22:11:14.866Z,38.00
2023-04-27T22:16:36.646Z,37.80
2023-04-27T22:21:58.326Z,38.50
2023-04-27T22:27:20.002Z,38.00
2023-04-27T22:32:42.480Z,40.60
2023-04-27T22:38:04.716Z,36.10
2023-04-27T22:43:26.654Z,39.80
2023-04-27T22:48:50.419Z,38.50
2023-04-27T22:54:11.918Z,37.60
2023-04-27T22:59:33.541Z,43.40
2023-04-27T23:04:55.668Z,40.80
2023-04-27T23:10:18.985Z,37.30
2023-04-27T23:15:41.233Z,37.20
2023-04-27T23:21:03.057Z,34.50
2023-04-27T23:26:27.202Z,30.20
2023-04-27T23:31:49.531Z,33.60
2023-04-27T23:37:10.958Z,35.10
2023-04-27T23:42:33.345Z,38.00
2023-04-27T23:47:55.942Z,39.20
2023-04-27T23:53:18.821Z,40.60
2023-04-27T23:58:41.888Z,40.80
